Time,TemperatureF,DewpointF,PressureIn,WindDirection,WindDirectionDegrees,WindSpeedMPH,WindSpeedGustMPH,Humidity,HourlyPrecipIn,Conditions,Clouds,dailyrainin,SolarRadiationWatts/m^2,SoftwareType,DateUTC
2013-07-15 00:01:00,49.0,46.0,-100.00,WNW,299,0.0,5.0,90,0.00,,,0.00,1.000000,,2013-07-15 07:01:00,
2013-07-15 00:11:00,49.0,46.0,-100.00,WNW,299,0.0,5.0,90,0.00,,,0.00,1.000000,,2013-07-15 07:11:00,
2013-07-15 00:21:00,49.0,46.0,-100.00,WNW,299,0.0,5.0,90,0.00,,,0.00,1.000000,,2013-07-15 07:21:00,
2013-07-15 00:32:00,49.0,46.0,-100.00,WNW,299,0.0,5.0,90,0.00,,,0.00,1.000000,,2013-07-15 07:32:00,
2013-07-15 01:01:00,48.0,46.0,-100.00,WNW,298,1.0,12.0,93,0.00,,,0.00,0.000000,,2013-07-15 08:01:00,
2013-07-15 01:11:00,48.0,46.0,-100.00,WNW,298,1.0,12.0,93,0.00,,,0.00,0.000000,,2013-07-15 08:11:00,
2013-07-15 01:22:00,48.0,46.0,-100.00,WNW,298,1.0,12.0,93,0.00,,,0.00,0.000000,,2013-07-15 08:22:00,
2013-07-15 01:32:00,48.0,46.0,-100.00,WNW,298,1.0,12.0,93,0.00,,,0.00,0.000000,,2013-07-15 08:32:00,
2013-07-15 01:53:00,48.0,46.0,-100.00,WNW,291,0.0,10.0,94,0.00,,,0.00,0.000000,,2013-07-15 08:53:00,
2013-07-15 02:01:00,48.0,46.0,-100.00,WNW,291,0.0,10.0,94,0.00,,,0.00,0.000000,,2013-07-15 09:01:00,
2013-07-15 02:11:00,48.0,46.0,-100.00,WNW,291,0.0,10.0,94,0.00,,,0.00,0.000000,,2013-07-15 09:11:00,
2013-07-15 02:22:00,48.0,46.0,-100.00,WNW,291,0.0,10.0,94,0.00,,,0.00,0.000000,,2013-07-15 09:22:00,
2013-07-15 02:32:00,48.0,46.0,-100.00,WNW,291,0.0,10.0,94,0.00,,,0.00,0.000000,,2013-07-15 09:32:00,
2013-07-15 02:52:00,48.0,47.0,-100.00,WNW,284,6.0,14.0,95,0.00,,,0.00,0.000000,,2013-07-15 09:52:00,
2013-07-15 03:02:00,48.0,47.0,-100.00,WNW,284,6.0,14.0,95,0.00,,,0.00,0.000000,,2013-07-15 10:02:00,
2013-07-15 03:11:00,48.0,47.0,-100.00,WNW,284,6.0,14.0,95,0.00,,,0.00,0.000000,,2013-07-15 10:11:00,
2013-07-15 03:21:00,48.0,47.0,-100.00,WNW,284,6.0,14.0,95,0.00,,,0.00,0.000000,,2013-07-15 10:21:00,
2013-07-15 03:32:00,48.0,47.0,-100.00,WNW,284,6.0,14.0,95,0.00,,,0.00,0.000000,,2013-07-15 10:32:00,
2013-07-15 03:53:00,47.0,46.0,-100.00,WNW,284,0.0,0.0,95,0.00,,,0.00,0.000000,,2013-07-15 10:53:00,
2013-07-15 04:01:00,47.0,46.0,-100.00,WNW,284,0.0,0.0,95,0.00,,,0.00,0.000000,,2013-07-15 11:01:00,
2013-07-15 04:11:00,47.0,46.0,-100.00,WNW,284,0.0,0.0,95,0.00,,,0.00,0.000000,,2013-07-15 11:11:00,
2013-07-15 04:22:00,47.0,46.0,-100.00,WNW,284,0.0,0.0,95,0.00,,,0.00,0.000000,,2013-07-15 11:22:00,
2013-07-15 04:32:00,47.0,46.0,-100.00,WNW,284,0.0,0.0,95,0.00,,,0.00,0.000000,,2013-07-15 11:32:00,
2013-07-15 04:52:00,48.0,47.0,-100.00,West,260,8.0,16.0,96,0.00,,,0.00,0.000000,,2013-07-15 11:52:00,
2013-07-15 05:01:00,48.0,47.0,-100.00,West,260,8.0,16.0,96,0.00,,,0.00,0.000000,,2013-07-15 12:01:00,
2013-07-15 05:11:00,48.0,47.0,-100.00,West,260,8.0,16.0,96,0.00,,,0.00,0.000000,,2013-07-15 12:11:00,
2013-07-15 05:22:00,48.0,47.0,-100.00,West,260,8.0,16.0,96,0.00,,,0.00,0.000000,,2013-07-15 12:22:00,
2013-07-15 05:32:00,48.0,47.0,-100.00,West,260,8.0,16.0,96,0.00,,,0.00,0.000000,,2013-07-15 12:32:00,
2013-07-15 05:53:00,47.0,46.0,-100.00,West,273,11.0,19.0,96,0.00,,,0.00,0.000000,,2013-07-15 12:53:00,
2013-07-15 06:01:00,47.0,46.0,-100.00,West,273,11.0,19.0,96,0.00,,,0.00,0.000000,,2013-07-15 13:01:00,
2013-07-15 06:11:00,47.0,46.0,-100.00,West,273,11.0,19.0,96,0.00,,,0.00,0.000000,,2013-07-15 13:11:00,
2013-07-15 06:22:00,47.0,46.0,-100.00,West,273,11.0,19.0,96,0.00,,,0.00,0.000000,,2013-07-15 13:22:00,
2013-07-15 06:32:00,47.0,46.0,-100.00,West,273,11.0,19.0,96,0.00,,,0.00,0.000000,,2013-07-15 13:32:00,
2013-07-15 06:33:00,47.0,46.0,-100.00,West,270,9.0,16.0,96,0.00,,,0.00,7.000000,,2013-07-15 13:33:00,
2013-07-15 07:02:00,47.0,46.0,-100.00,West,270,9.0,16.0,96,0.00,,,0.00,7.000000,,2013-07-15 14:02:00,
2013-07-15 07:11:00,47.0,46.0,-100.00,West,270,9.0,16.0,96,0.00,,,0.00,7.000000,,2013-07-15 14:11:00,
2013-07-15 07:22:00,47.0,46.0,-100.00,West,270,9.0,16.0,96,0.00,,,0.00,7.000000,,2013-07-15 14:22:00,
2013-07-15 07:33:00,47.0,46.0,-100.00,West,278,0.0,12.0,96,0.00,,,0.00,56.000000,,2013-07-15 14:33:00,
2013-07-15 08:00:00,47.0,46.0,-100.00,West,278,0.0,12.0,96,0.00,,,0.00,56.000000,,2013-07-15 15:00:00,
2013-07-15 08:14:00,47.0,46.0,-100.00,West,278,0.0,12.0,96,0.00,,,0.00,56.000000,,2013-07-15 15:14:00,
2013-07-15 08:23:00,47.0,46.0,-100.00,West,278,0.0,12.0,96,0.00,,,0.00,56.000000,,2013-07-15 15:23:00,
2013-07-15 08:53:00,48.0,47.0,-100.00,West,279,0.0,0.0,96,0.00,,,0.00,109.000000,,2013-07-15 15:53:00,
2013-07-15 09:14:00,48.0,47.0,-100.00,West,279,0.0,0.0,96,0.00,,,0.00,109.000000,,2013-07-15 16:14:00,
2013-07-15 09:32:00,48.0,47.0,-100.00,West,279,0.0,0.0,96,0.00,,,0.00,109.000000,,2013-07-15 16:32:00,
2013-07-15 09:33:00,49.0,48.0,-100.00,West,275,0.0,0.0,96,0.00,,,0.00,191.000000,,2013-07-15 16:33:00,
2013-07-15 09:52:00,49.0,48.0,-100.00,West,275,0.0,0.0,96,0.00,,,0.00,191.000000,,2013-07-15 16:52:00,
2013-07-15 10:03:00,49.0,48.0,-100.00,West,275,0.0,0.0,96,0.00,,,0.00,191.000000,,2013-07-15 17:03:00,
2013-07-15 10:13:00,49.0,48.0,-100.00,West,275,0.0,0.0,96,0.00,,,0.00,191.000000,,2013-07-15 17:13:00,
2013-07-15 10:23:00,49.0,48.0,-100.00,West,275,0.0,0.0,96,0.00,,,0.00,191.000000,,2013-07-15 17:23:00,
2013-07-15 10:59:00,53.0,52.0,-100.00,WNW,282,0.0,14.0,95,0.00,,,0.00,514.000000,,2013-07-15 17:59:00,
2013-07-15 11:13:00,53.0,52.0,-100.00,WNW,282,0.0,14.0,95,0.00,,,0.00,514.000000,,2013-07-15 18:13:00,
2013-07-15 11:23:00,53.0,52.0,-100.00,WNW,282,0.0,14.0,95,0.00,,,0.00,514.000000,,2013-07-15 18:23:00,
2013-07-15 11:33:00,63.0,49.0,-100.00,WSW,254,0.0,3.0,61,0.00,,,0.00,833.000000,,2013-07-15 18:33:00,
2013-07-15 11:59:00,63.0,49.0,-100.00,WSW,254,0.0,3.0,61,0.00,,,0.00,833.000000,,2013-07-15 18:59:00,
2013-07-15 12:04:00,63.0,49.0,-100.00,WSW,254,0.0,3.0,61,0.00,,,0.00,833.000000,,2013-07-15 19:04:00,
2013-07-15 12:11:00,63.0,49.0,-100.00,WSW,254,0.0,3.0,61,0.00,,,0.00,833.000000,,2013-07-15 19:11:00,
2013-07-15 12:23:00,63.0,49.0,-100.00,WSW,254,0.0,3.0,61,0.00,,,0.00,833.000000,,2013-07-15 19:23:00,
2013-07-15 13:04:00,67.0,49.0,-100.00,WSW,237,0.0,10.0,52,0.00,,,0.00,932.000000,,2013-07-15 20:04:00,
2013-07-15 13:14:00,67.0,49.0,-100.00,WSW,237,0.0,10.0,52,0.00,,,0.00,932.000000,,2013-07-15 20:14:00,
2013-07-15 13:23:00,67.0,49.0,-100.00,WSW,237,0.0,10.0,52,0.00,,,0.00,932.000000,,2013-07-15 20:23:00,
2013-07-15 13:32:00,67.0,49.0,-100.00,WSW,237,0.0,10.0,52,0.00,,,0.00,932.000000,,2013-07-15 20:32:00,
2013-07-15 13:33:00,70.0,50.0,-100.00,West,273,0.0,12.0,50,0.00,,,0.00,977.000000,,2013-07-15 20:33:00,
2013-07-15 14:02:00,70.0,50.0,-100.00,West,273,0.0,12.0,50,0.00,,,0.00,977.000000,,2013-07-15 21:02:00,
2013-07-15 14:12:00,70.0,50.0,-100.00,West,273,0.0,12.0,50,0.00,,,0.00,977.000000,,2013-07-15 21:12:00,
2013-07-15 14:23:00,70.0,50.0,-100.00,West,273,0.0,12.0,50,0.00,,,0.00,977.000000,,2013-07-15 21:23:00,
2013-07-15 14:33:00,69.0,49.0,-100.00,West,277,5.0,18.0,49,0.00,,,0.00,973.000000,,2013-07-15 21:33:00,
2013-07-15 15:02:00,69.0,49.0,-100.00,West,277,5.0,18.0,49,0.00,,,0.00,973.000000,,2013-07-15 22:02:00,
2013-07-15 15:14:00,69.0,49.0,-100.00,West,277,5.0,18.0,49,0.00,,,0.00,973.000000,,2013-07-15 22:14:00,
2013-07-15 15:22:00,69.0,49.0,-100.00,West,277,5.0,18.0,49,0.00,,,0.00,973.000000,,2013-07-15 22:22:00,
2013-07-15 15:33:00,67.0,49.0,-100.00,West,272,13.0,20.0,53,0.00,,,0.00,917.000000,,2013-07-15 22:33:00,
2013-07-15 16:03:00,67.0,49.0,-100.00,West,272,13.0,20.0,53,0.00,,,0.00,917.000000,,2013-07-15 23:03:00,
2013-07-15 16:13:00,67.0,49.0,-100.00,West,272,13.0,20.0,53,0.00,,,0.00,917.000000,,2013-07-15 23:13:00,
2013-07-15 16:23:00,67.0,49.0,-100.00,West,272,13.0,20.0,53,0.00,,,0.00,917.000000,,2013-07-15 23:23:00,
2013-07-15 16:54:00,65.0,48.0,-100.00,West,277,13.0,22.0,54,0.00,,,0.00,810.000000,,2013-07-15 23:54:00,
2013-07-15 17:03:00,65.0,48.0,-100.00,West,277,13.0,22.0,54,0.00,,,0.00,810.000000,,2013-07-16 00:03:00,
2013-07-15 17:23:00,65.0,48.0,-100.00,West,277,13.0,22.0,54,0.00,,,0.00,810.000000,,2013-07-16 00:23:00,
2013-07-15 17:32:00,65.0,48.0,-100.00,West,277,13.0,22.0,54,0.00,,,0.00,810.000000,,2013-07-16 00:32:00,
2013-07-15 18:04:00,62.0,47.0,-100.00,West,280,12.0,22.0,59,0.00,,,0.00,658.000000,,2013-07-16 01:04:00,
2013-07-15 18:12:00,62.0,47.0,-100.00,West,280,12.0,22.0,59,0.00,,,0.00,658.000000,,2013-07-16 01:12:00,
2013-07-15 18:23:00,62.0,47.0,-100.00,West,280,12.0,22.0,59,0.00,,,0.00,658.000000,,2013-07-16 01:23:00,
2013-07-15 18:32:00,62.0,47.0,-100.00,West,280,12.0,22.0,59,0.00,,,0.00,658.000000,,2013-07-16 01:32:00,
2013-07-15 18:33:00,57.0,48.0,-100.00,West,279,15.0,22.0,72,0.00,,,0.00,472.000000,,2013-07-16 01:33:00,
2013-07-15 19:00:00,57.0,48.0,-100.00,West,279,15.0,22.0,72,0.00,,,0.00,472.000000,,2013-07-16 02:00:00,
2013-07-15 19:11:00,57.0,48.0,-100.00,West,279,15.0,22.0,72,0.00,,,0.00,472.000000,,2013-07-16 02:11:00,
2013-07-15 19:23:00,57.0,48.0,-100.00,West,279,15.0,22.0,72,0.00,,,0.00,472.000000,,2013-07-16 02:23:00,
2013-07-15 19:33:00,53.0,50.0,-100.00,WNW,283,15.0,22.0,88,0.00,,,0.00,232.000000,,2013-07-16 02:33:00,
2013-07-15 20:04:00,53.0,50.0,-100.00,WNW,283,15.0,22.0,88,0.00,,,0.00,232.000000,,2013-07-16 03:04:00,
2013-07-15 20:13:00,53.0,50.0,-100.00,WNW,283,15.0,22.0,88,0.00,,,0.00,232.000000,,2013-07-16 03:13:00,